| Date | Time | Temp. (oF) | Dew Point (oF) | Rel. Hum. (%) | Press. (in.) | Wind Dir. (deg.) | Wind Speed (mph) | Hourly Rainfall (i n.) |
|
|---|---|---|---|---|---|---|---|---|---|
| 1 | 05/30 | 24:00 | 67 | 54 | 64 | 30.33 | 310 | 0 | 0.00 |
| 2 | 05/29 | 23:00 | 69 | 54 | 59 | 30.32 | 310 | 0 | 0.00 |
| 3 | 05/29 | 22:00 | 71 | 51 | 51 | 30.30 | 310 | 0 | 0.00 |
| 4 | 05/29 | 21:00 | 75 | 52 | 45 | 30.27 | 310 | 0 | 0.00 |
| 5 | 05/29 | 20:00 | 79 | 52 | 40 | 30.23 | 310 | 0 | 0.00 |
| 6 | 05/29 | 19:00 | 83 | 51 | 34 | 30.22 | 290 | 1 | 0.00 |
| 7 | 05/29 | 18:00 | 85 | 49 | 30 | 30.25 | 290 | 4 | 0.00 |
| 8 | 05/29 | 17:00 | 86 | 50 | 30 | 30.26 | 290 | 2 | 0.00 |
| 9 | 05/29 | 16:00 | 87 | 52 | 31 | 30.26 | 330 | 9 | 0.00 |
| 10 | 05/29 | 15:00 | 88 | 51 | 29 | 30.27 | 270 | 2 | 0.00 |
| 11 | 05/29 | 14:00 | 90 | 53 | 29 | 30.33 | 300 | 7 | 0.00 |
| 12 | 05/29 | 13:00 | 89 | 52 | 29 | 30.35 | 300 | 2 | 0.00 |
| 13 | 05/29 | 12:00 | 88 | 54 | 33 | 30.35 | 350 | 4 | 0.00 |
| 14 | 05/29 | 11:00 | 83 | 54 | 38 | 30.35 | 290 | 1 | 0.00 |
| 15 | 05/29 | 10:00 | 71 | 50 | 49 | 30.34 | 310 | 4 | 0.00 |
| 16 | 05/29 | 09:00 | 63 | 52 | 69 | 30.34 | 270 | 2 | 0.00 |
| 17 | 05/29 | 08:00 | 57 | 52 | 85 | 30.32 | 330 | 0 | 0.00 |
| 18 | 05/29 | 07:00 | 54 | 49 | 84 | 30.30 | 330 | 0 | 0.00 |
| 19 | 05/29 | 06:00 | 54 | 48 | 82 | 30.28 | 330 | 0 | 0.00 |
| 20 | 05/29 | 05:00 | 55 | 48 | 79 | 30.27 | 330 | 0 | 0.00 |
| 21 | 05/29 | 04:00 | 56 | 49 | 78 | 30.26 | 330 | 0 | 0.00 |
| 22 | 05/29 | 03:00 | 57 | 49 | 76 | 30.26 | 330 | 0 | 0.00 |
| 23 | 05/29 | 02:00 | 59 | 50 | 74 | 30.26 | 330 | 0 | 0.00 |
| 24 | 05/29 | 01:00 | 60 | 49 | 68 | 30.25 | 330 | 0 | 0.00 |